Time;durP1;ratioP1;P1;durP2;ratioP2;P2;SDS_P1;SDS_P2;PMS_P1;PMS_P2;Temp;Humidity;BMP_temperature;BMP_pressure;BME280_temperature;BME280_humidity;BME280_pressure;Samples;Min_cycle;Max_cycle;Signal;HPM_P1;HPM_P2
2021/05/19 00:00:53;;;;;;;24.30;16.88;;;;;;;30.33;56.39;100779.34;5063281;27;70306;-37
2021/05/19 00:03:23;;;;;;;29.10;18.13;;;;;;;30.47;56.55;100791.72;5065697;28;65391;-36
2021/05/19 00:05:54;;;;;;;20.87;17.37;;;;;;;30.49;57.15;100786.94;5067658;27;70040;-37
2021/05/19 00:08:24;;;;;;;31.20;18.55;;;;;;;30.58;56.52;100796.44;5065085;28;66200;-37
2021/05/19 00:10:55;;;;;;;39.38;18.73;;;;;;;30.63;56.82;100799.31;5062029;27;69453;-35
2021/05/19 00:13:28;;;;;;;37.90;19.90;;;;;;;30.66;57.10;100798.84;5069006;27;66013;-36
2021/05/19 00:15:59;;;;;;;41.10;19.92;;;;;;;30.72;59.54;100797.97;5065016;27;70616;-36
2021/05/19 00:18:30;;;;;;;44.17;21.00;;;;;;;30.70;59.80;100793.81;5066281;27;66504;-36
2021/05/19 00:21:02;;;;;;;43.72;19.05;;;;;;;30.75;59.24;100785.03;5062512;28;70217;-37
2021/05/19 00:23:33;;;;;;;37.57;20.53;;;;;;;30.81;58.86;100790.41;5070344;27;65888;-38
2021/05/19 00:26:04;;;;;;;36.10;20.90;;;;;;;30.82;60.84;100791.28;5073674;27;70144;-36
2021/05/19 00:28:35;;;;;;;42.70;20.95;;;;;;;30.82;61.65;100785.84;5070361;28;66019;-37
2021/05/19 00:31:08;;;;;;;36.95;21.70;;;;;;;30.80;60.82;100779.81;5070588;27;69880;-38
2021/05/19 00:33:38;;;;;;;42.35;21.17;;;;;;;30.87;60.91;100799.53;5073687;27;66345;-38
2021/05/19 00:36:14;;;;;;;35.13;20.98;;;;;;;30.92;60.51;100797.00;5069569;27;70765;-38
2021/05/19 00:38:45;;;;;;;32.65;21.23;;;;;;;30.87;61.06;100784.13;5075450;27;65962;-38
2021/05/19 00:41:16;;;;;;;36.03;21.40;;;;;;;30.91;60.28;100784.50;5070784;27;69793;-38
2021/05/19 00:43:47;;;;;;;35.17;21.52;;;;;;;30.98;60.38;100793.41;5070165;27;66095;-37
2021/05/19 00:46:17;;;;;;;31.88;20.83;;;;;;;31.03;59.98;100793.56;5072841;28;69973;-37
2021/05/19 00:48:47;;;;;;;35.50;20.90;;;;;;;31.05;59.51;100796.88;5073919;27;66552;-37
2021/05/19 00:51:18;;;;;;;27.23;20.50;;;;;;;31.07;59.20;100807.50;5071403;28;70488;-36
2021/05/19 00:53:49;;;;;;;34.15;20.45;;;;;;;31.09;59.07;100800.81;5087724;27;65899;-37
2021/05/19 00:56:19;;;;;;;29.58;19.83;;;;;;;31.12;58.93;100808.50;5072038;27;69891;-37
2021/05/19 00:59:00;;;;;;;37.35;20.45;;;;;;;31.15;59.08;100808.03;5074990;27;65962;-37
2021/05/19 01:01:37;;;;;;;34.28;19.92;;;;;;;31.09;59.01;100795.41;5071183;28;68954;-38
2021/05/19 01:04:13;;;;;;;28.58;20.73;;;;;;;30.85;58.61;100759.16;5066311;28;66917;-37
2021/05/19 01:07:13;;;;;;;25.00;19.60;;;;;;;30.97;58.54;100767.38;5071874;28;69382;-37
2021/05/19 01:09:43;;;;;;;23.50;19.13;;;;;;;31.23;58.71;100825.03;5071152;27;66106;-38
2021/05/19 01:12:18;;;;;;;33.55;19.58;;;;;;;31.19;58.71;100807.59;5067803;28;71010;-38
2021/05/19 01:14:51;;;;;;;35.88;19.90;;;;;;;30.70;58.33;100724.28;5069739;28;67788;-38
2021/05/19 01:17:22;;;;;;;23.83;18.27;;;;;;;31.28;58.27;100822.50;5073660;27;70095;-38
2021/05/19 01:19:53;;;;;;;30.15;19.50;;;;;;;30.98;57.73;100757.34;5071479;27;66051;-38
2021/05/19 01:22:29;;;;;;;27.88;19.35;;;;;;;31.07;57.80;100778.53;5073406;27;69888;-38
2021/05/19 01:24:59;;;;;;;21.98;18.13;;;;;;;31.40;57.77;100823.44;5071800;27;65511;-38
2021/05/19 01:27:30;;;;;;;25.65;17.85;;;;;;;31.43;57.96;100836.56;5071283;27;69882;-37
2021/05/19 01:30:01;;;;;;;25.60;18.50;;;;;;;31.45;57.44;100829.00;5067402;28;66366;-39
2021/05/19 01:32:34;;;;;;;26.00;18.83;;;;;;;31.49;57.78;100824.81;5072796;28;69801;-39
2021/05/19 01:35:06;;;;;;;24.58;17.88;;;;;;;31.52;57.67;100824.34;5068680;27;65434;-37
2021/05/19 01:37:38;;;;;;;23.92;17.08;;;;;;;31.56;56.84;100822.00;5066885;28;69475;-37
2021/05/19 01:40:12;;;;;;;19.80;17.70;;;;;;;31.56;57.53;100817.41;5071522;27;65967;-38
2021/05/19 01:42:46;;;;;;;21.92;16.50;;;;;;;31.58;56.97;100823.44;5069768;28;69482;-37
2021/05/19 01:45:50;;;;;;;23.08;16.48;;;;;;;30.97;56.69;100715.06;5070209;28;66812;-37
2021/05/19 01:48:23;;;;;;;22.67;17.27;;;;;;;31.31;56.50;100765.94;5072493;27;68232;-38
2021/05/19 01:50:54;;;;;;;21.45;15.60;;;;;;;31.66;57.10;100807.94;5064644;27;66397;-38
2021/05/19 01:53:25;;;;;;;17.95;16.05;;;;;;;31.70;56.78;100814.53;5070826;27;71114;-37
2021/05/19 01:55:58;;;;;;;17.73;15.75;;;;;;;31.67;56.87;100809.56;5073356;27;65220;-38
2021/05/19 01:58:35;;;;;;;17.92;16.02;;;;;;;31.69;56.62;100799.34;5072631;27;69993;-38
2021/05/19 02:01:14;;;;;;;17.77;15.88;;;;;;;31.76;56.59;100795.50;5068410;28;66288;-38
2021/05/19 02:03:48;;;;;;;17.02;14.73;;;;;;;31.36;56.33;100721.94;5056875;27;69851;-38
2021/05/19 02:06:20;;;;;;;23.70;15.52;;;;;;;31.81;56.33;100789.34;5057355;27;66438;-38
2021/05/19 02:08:54;;;;;;;17.02;15.18;;;;;;;31.88;56.46;100795.53;5066198;28;69910;-37
2021/05/19 02:11:27;;;;;;;17.00;14.90;;;;;;;31.90;56.25;100793.44;5064046;28;66192;-37
2021/05/19 02:14:03;;;;;;;18.67;14.27;;;;;;;31.95;55.87;100796.28;5074000;27;69434;-37
2021/05/19 02:16:34;;;;;;;20.80;15.02;;;;;;;31.93;56.15;100789.44;5068261;28;66098;-37
2021/05/19 02:19:07;;;;;;;22.75;14.95;;;;;;;31.96;56.02;100792.53;5069757;28;71839;-37
2021/05/19 02:21:43;;;;;;;18.48;14.63;;;;;;;31.64;55.98;100729.50;5071704;28;65060;-37
2021/05/19 02:24:22;;;;;;;16.25;14.75;;;;;;;32.01;55.92;100776.41;5061188;28;70656;-37
2021/05/19 02:26:57;;;;;;;15.73;14.05;;;;;;;32.04;55.76;100773.22;5063014;27;66076;-37
2021/05/19 02:29:31;;;;;;;15.10;13.60;;;;;;;32.05;55.72;100772.16;5065483;27;70462;-37
2021/05/19 02:32:08;;;;;;;15.95;14.23;;;;;;;32.08;55.53;100767.34;5070802;27;65377;-36
2021/05/19 02:34:38;;;;;;;15.53;13.90;;;;;;;32.11;55.49;100766.88;5075313;28;69102;-37
2021/05/19 02:37:13;;;;;;;16.38;14.30;;;;;;;32.13;55.50;100772.91;5072433;27;66021;-37
2021/05/19 02:39:53;;;;;;;15.32;13.77;;;;;;;32.09;55.17;100755.41;5058493;28;69088;-37
2021/05/19 02:42:27;;;;;;;20.77;14.80;;;;;;;32.16;55.78;100770.53;5068218;27;66339;-37
2021/05/19 02:45:03;;;;;;;14.80;13.30;;;;;;;32.11;55.50;100756.84;5073256;27;69997;-38
2021/05/19 02:47:35;;;;;;;14.25;12.88;;;;;;;32.19;55.63;100774.69;5051913;28;65930;-37
2021/05/19 02:50:09;;;;;;;15.73;13.18;;;;;;;32.21;55.30;100773.38;5076279;27;69474;-38
2021/05/19 02:52:40;;;;;;;15.18;13.68;;;;;;;32.17;55.11;100769.47;5063313;27;65045;-37
2021/05/19 02:55:14;;;;;;;23.02;13.60;;;;;;;32.21;55.48;100770.69;5070651;27;69846;-37
2021/05/19 02:57:54;;;;;;;15.00;13.23;;;;;;;32.22;55.12;100757.94;5071019;28;65496;-37
2021/05/19 03:00:28;;;;;;;14.57;13.35;;;;;;;32.21;55.45;100753.56;5066842;27;68739;-39
2021/05/19 03:03:04;;;;;;;20.08;13.57;;;;;;;32.26;55.50;100759.09;5075951;28;65387;-38
2021/05/19 03:05:35;;;;;;;14.10;12.45;;;;;;;32.24;55.37;100747.66;5069940;27;69288;-37
2021/05/19 03:08:14;;;;;;;15.45;12.65;;;;;;;32.21;55.13;100729.16;5058116;28;65989;-38
2021/05/19 03:10:48;;;;;;;18.33;12.82;;;;;;;32.31;55.22;100745.66;5074537;28;69229;-38
2021/05/19 03:13:24;;;;;;;13.00;11.90;;;;;;;32.32;55.13;100736.47;5058794;27;66818;-37
2021/05/19 03:16:01;;;;;;;13.15;12.07;;;;;;;32.24;55.45;100724.06;5070900;27;69488;-37
2021/05/19 03:18:32;;;;;;;13.05;11.80;;;;;;;32.35;54.98;100730.56;5073798;28;68178;-37
2021/05/19 03:21:04;;;;;;;13.52;12.25;;;;;;;32.37;54.93;100724.91;5063174;27;70445;-37
2021/05/19 03:23:38;;;;;;;12.98;11.80;;;;;;;32.39;55.25;100726.31;5072707;27;65385;-37
2021/05/19 03:26:10;;;;;;;14.45;12.98;;;;;;;32.41;55.11;100724.22;5076126;27;69418;-37
2021/05/19 03:28:41;;;;;;;13.80;12.70;;;;;;;32.46;54.80;100727.06;5066218;28;65126;-37
2021/05/19 03:31:12;;;;;;;12.32;11.15;;;;;;;32.42;54.79;100709.56;5066792;27;72335;-37
2021/05/19 03:33:44;;;;;;;12.73;11.63;;;;;;;32.44;54.87;100723.72;5056466;27;65849;-37
2021/05/19 03:36:15;;;;;;;18.95;11.80;;;;;;;32.51;54.69;100729.06;5059402;28;70136;-37
2021/05/19 03:38:47;;;;;;;15.48;11.90;;;;;;;32.51;54.55;100731.78;5073556;27;65631;-38
2021/05/19 03:41:21;;;;;;;13.75;12.35;;;;;;;32.54;54.95;100733.22;5063347;28;71431;-38
2021/05/19 03:44:05;;;;;;;15.15;11.18;;;;;;;32.53;54.73;100739.72;5066285;27;66082;-38
2021/05/19 03:46:40;;;;;;;14.52;11.95;;;;;;;32.54;54.58;100725.06;5067614;28;71500;-37
2021/05/19 03:49:13;;;;;;;13.27;11.95;;;;;;;32.49;54.76;100709.50;5075709;27;65373;-37
2021/05/19 03:51:43;;;;;;;13.25;11.32;;;;;;;32.60;54.58;100724.16;5058944;27;70017;-37
2021/05/19 03:54:16;;;;;;;12.60;11.30;;;;;;;32.62;54.91;100724.72;5071340;28;66175;-37
2021/05/19 03:56:50;;;;;;;12.35;11.25;;;;;;;32.67;54.60;100727.56;5057393;28;69011;-38
2021/05/19 03:59:21;;;;;;;16.25;11.93;;;;;;;32.67;54.50;100727.56;5069206;28;66099;-38
2021/05/19 04:01:52;;;;;;;12.40;11.30;;;;;;;32.69;54.75;100720.00;5057307;28;70075;-37
2021/05/19 04:04:32;;;;;;;11.18;10.35;;;;;;;32.70;54.40;100713.50;5060509;28;66409;-37
2021/05/19 04:07:05;;;;;;;14.23;11.05;;;;;;;32.72;54.26;100708.66;5074732;27;70815;-37
2021/05/19 04:09:37;;;;;;;13.15;11.57;;;;;;;32.74;54.46;100708.44;5077222;27;67770;-37
2021/05/19 04:12:08;;;;;;;10.93;10.15;;;;;;;32.77;54.13;100708.78;5072490;27;69859;-37
2021/05/19 04:14:39;;;;;;;13.98;11.50;;;;;;;32.80;54.65;100700.16;5063067;27;65993;-37
2021/05/19 04:17:09;;;;;;;12.85;11.75;;;;;;;32.83;54.21;100691.53;5071753;28;69843;-37
2021/05/19 04:19:41;;;;;;;12.07;10.88;;;;;;;32.80;54.21;100683.84;5063343;27;65146;-37
2021/05/19 04:22:12;;;;;;;;;;;;;;;32.65;54.92;100692.50;5071140;27;69747;-38
2021/05/19 04:24:43;;;;;;;10.30;9.55;;;;;;;32.74;54.09;100657.66;5069879;28;66263;-37
2021/05/19 04:27:14;;;;;;;10.93;10.05;;;;;;;32.86;54.03;100672.03;5066546;28;69265;-37
2021/05/19 04:29:45;;;;;;;11.18;10.10;;;;;;;32.91;54.02;100669.44;5056407;28;66902;-38
2021/05/19 04:32:19;;;;;;;11.25;10.48;;;;;;;32.76;53.91;100641.91;5068699;28;70197;-37
2021/05/19 04:34:51;;;;;;;11.20;10.40;;;;;;;33.00;54.10;100663.66;5060142;27;65827;-37
2021/05/19 04:37:24;;;;;;;12.00;10.88;;;;;;;32.98;53.90;100658.41;5077086;27;69974;-38
2021/05/19 04:39:55;;;;;;;11.77;10.80;;;;;;;33.09;54.06;100665.72;5075033;27;66131;-37
2021/05/19 04:42:26;;;;;;;10.82;9.90;;;;;;;33.09;53.70;100659.47;5073514;27;69934;-37
2021/05/19 04:44:58;;;;;;;12.93;10.85;;;;;;;33.05;53.61;100651.00;5076258;27;65891;-37
2021/05/19 04:47:29;;;;;;;10.85;9.75;;;;;;;33.13;53.93;100649.78;5067004;27;70027;-37
2021/05/19 04:50:13;;;;;;;10.20;9.30;;;;;;;33.16;53.74;100652.03;5073885;28;65653;-37
2021/05/19 04:52:45;;;;;;;11.25;10.10;;;;;;;33.13;53.82;100644.34;5073297;27;69792;-38
2021/05/19 04:55:17;;;;;;;10.30;9.47;;;;;;;33.16;53.60;100643.88;5077203;27;66191;-37
2021/05/19 04:57:47;;;;;;;10.07;9.20;;;;;;;33.09;53.77;100621.44;5061361;27;70911;-38
2021/05/19 05:00:18;;;;;;;10.15;9.32;;;;;;;33.19;53.40;100643.38;5068608;27;66545;-37
2021/05/19 05:02:49;;;;;;;11.03;9.87;;;;;;;33.20;53.83;100631.44;5064349;27;69766;-38
2021/05/19 05:05:19;;;;;;;11.30;10.25;;;;;;;33.22;54.18;100626.59;5065602;27;66188;-37
2021/05/19 05:07:50;;;;;;;15.83;12.80;;;;;;;33.14;54.58;100608.78;5059348;28;71728;-38
2021/05/19 05:10:23;;;;;;;33.00;14.75;;;;;;;33.26;54.97;100616.06;5069204;28;66384;-38
2021/05/19 05:12:54;;;;;;;25.57;16.00;;;;;;;33.26;55.61;100610.63;5069567;28;69653;-37
2021/05/19 05:15:25;;;;;;;31.90;18.05;;;;;;;33.21;55.52;100600.50;5055997;28;65410;-37
2021/05/19 05:17:57;;;;;;;35.25;19.70;;;;;;;33.29;55.88;100610.97;5063815;27;70030;-36
2021/05/19 05:20:30;;;;;;;32.72;20.77;;;;;;;32.93;56.16;100553.19;5068796;27;66846;-35
2021/05/19 05:23:03;;;;;;;29.67;18.77;;;;;;;33.28;56.05;100609.31;5064821;27;69860;-37
2021/05/19 05:25:41;;;;;;;21.23;17.38;;;;;;;33.27;56.42;100612.28;5049169;28;65195;-36
2021/05/19 05:28:12;;;;;;;17.90;15.97;;;;;;;33.24;56.78;100605.44;5064813;28;70344;-36
2021/05/19 05:30:43;;;;;;;17.67;14.70;;;;;;;32.95;56.98;100550.22;5064555;28;66478;-36
2021/05/19 05:33:17;;;;;;;23.00;15.38;;;;;;;33.20;57.46;100590.66;5060497;28;69979;-36
2021/05/19 05:35:56;;;;;;;20.08;13.50;;;;;;;33.18;57.67;100587.34;5063578;28;66448;-36
2021/05/19 05:38:32;;;;;;;15.63;13.77;;;;;;;33.14;57.75;100576.16;5059703;28;69712;-37
2021/05/19 05:41:07;;;;;;;14.65;13.15;;;;;;;33.11;57.92;100568.50;5058785;27;66323;-37
2021/05/19 05:43:49;;;;;;;19.02;13.15;;;;;;;33.07;58.16;100555.63;5060434;27;69304;-37
2021/05/19 05:46:23;;;;;;;16.60;12.30;;;;;;;32.80;58.36;100520.88;5066097;28;66030;-36
2021/05/19 05:49:00;;;;;;;16.58;12.40;;;;;;;32.98;57.50;100555.16;5063899;27;69344;-36
2021/05/19 05:51:31;;;;;;;13.40;11.75;;;;;;;32.85;54.79;100550.84;5062566;28;66604;-36
2021/05/19 05:54:06;;;;;;;11.95;10.95;;;;;;;32.67;52.84;100548.31;5066777;27;70119;-37
2021/05/19 05:56:41;;;;;;;12.43;11.13;;;;;;;32.43;50.95;100542.06;5069915;27;66773;-36
2021/05/19 05:59:12;;;;;;;;;;;;;;;31.94;49.63;100541.53;5066494;27;70141;-36
2021/05/19 06:01:45;;;;;;;14.80;11.10;;;;;;;31.98;48.24;100540.84;5061010;28;65250;-36
2021/05/19 06:04:16;;;;;;;17.27;9.95;;;;;;;31.82;47.07;100536.91;5063933;28;70536;-37
2021/05/19 06:06:48;;;;;;;10.60;9.75;;;;;;;31.67;46.68;100533.81;5055265;27;66577;-37
2021/05/19 06:09:20;;;;;;;11.43;10.40;;;;;;;31.52;45.99;100526.13;5070450;27;69197;-37
2021/05/19 06:11:51;;;;;;;10.20;9.18;;;;;;;31.34;44.89;100528.88;5062128;27;67200;-37
2021/05/19 06:14:25;;;;;;;9.00;8.32;;;;;;;31.21;44.02;100523.69;5056154;28;71506;-38
2021/05/19 06:17:02;;;;;;;10.13;9.15;;;;;;;31.11;43.95;100514.22;5052367;28;66030;-37
2021/05/19 06:19:37;;;;;;;8.85;8.15;;;;;;;31.01;43.68;100508.53;5054830;28;70708;-37
2021/05/19 06:22:09;;;;;;;9.40;8.65;;;;;;;30.93;43.06;100490.72;5059958;27;65871;-36
2021/05/19 06:24:41;;;;;;;9.20;8.35;;;;;;;30.82;42.99;100498.81;5066499;28;69322;-39
2021/05/19 06:27:14;;;;;;;9.07;8.20;;;;;;;30.74;43.02;100480.97;5057079;27;66509;-36
2021/05/19 06:29:50;;;;;;;8.07;7.53;;;;;;;30.58;42.45;100471.56;5068699;28;69930;-37
2021/05/19 06:32:22;;;;;;;7.90;7.30;;;;;;;30.59;42.03;100477.81;5061205;28;65670;-37
2021/05/19 06:34:56;;;;;;;10.32;7.78;;;;;;;30.58;42.79;100477.00;5068766;27;69650;-39
2021/05/19 06:37:27;;;;;;;;;;;;;;;30.46;43.17;100489.66;5066317;28;66518;-37
2021/05/19 06:40:00;;;;;;;8.70;8.00;;;;;;;30.81;44.25;100483.59;5070089;27;70623;-36
2021/05/19 06:42:36;;;;;;;8.80;7.13;;;;;;;30.87;44.41;100458.28;5071871;27;65719;-36
2021/05/19 06:45:09;;;;;;;8.68;7.80;;;;;;;31.15;44.60;100477.47;5066737;27;70988;-37
2021/05/19 06:47:40;;;;;;;;;;;;;;;31.07;44.91;100483.22;5066893;28;65973;-37
2021/05/19 06:50:12;;;;;;;8.48;7.70;;;;;;;31.46;45.33;100477.47;5070790;27;69732;-38
2021/05/19 06:52:56;;;;;;;8.85;8.05;;;;;;;31.61;46.03;100484.06;5069456;28;65157;-38
2021/05/19 06:55:30;;;;;;;11.10;8.77;;;;;;;31.71;45.82;100475.34;5070879;28;68067;-38
2021/05/19 06:58:02;;;;;;;8.73;8.02;;;;;;;31.87;45.98;100479.22;5067707;27;65655;-37
2021/05/19 07:00:38;;;;;;;9.18;8.30;;;;;;;31.96;45.94;100479.75;5071375;27;68975;-38
2021/05/19 07:03:20;;;;;;;8.93;8.23;;;;;;;31.99;45.91;100471.13;5069103;28;66135;-38
2021/05/19 07:05:51;;;;;;;9.20;8.48;;;;;;;32.13;46.17;100471.69;5071116;28;69813;-39
2021/05/19 07:08:25;;;;;;;14.45;8.57;;;;;;;32.22;46.63;100460.22;5071120;28;66401;-38
2021/05/19 07:11:01;;;;;;;8.52;7.85;;;;;;;32.31;46.75;100460.66;5064416;27;70398;-39
2021/05/19 07:13:45;;;;;;;8.55;8.02;;;;;;;32.39;46.31;100459.47;5068965;28;66504;-38
2021/05/19 07:16:27;;;;;;;8.75;8.05;;;;;;;32.47;46.41;100456.41;5064049;28;70065;-37
2021/05/19 07:18:58;;;;;;;8.38;7.70;;;;;;;32.55;46.52;100452.50;5068705;28;67059;-38
2021/05/19 07:21:31;;;;;;;8.32;7.80;;;;;;;32.63;46.54;100455.63;5067205;28;70192;-37
2021/05/19 07:24:10;;;;;;;8.70;8.10;;;;;;;32.68;46.23;100460.31;5069720;27;65956;-37
2021/05/19 07:26:47;;;;;;;8.20;7.60;;;;;;;32.76;46.77;100453.69;5064463;28;69742;-37
2021/05/19 07:29:28;;;;;;;7.43;6.90;;;;;;;32.80;46.70;100444.81;5071547;28;66064;-38
2021/05/19 07:32:02;;;;;;;7.20;6.70;;;;;;;32.85;46.71;100442.19;5071125;27;69221;-38
2021/05/19 07:34:34;;;;;;;7.50;7.03;;;;;;;32.87;46.86;100442.75;5069403;27;66143;-38
2021/05/19 07:37:18;;;;;;;9.75;7.30;;;;;;;32.84;46.86;100413.38;5061848;27;70486;-37
2021/05/19 07:39:50;;;;;;;7.68;7.18;;;;;;;32.81;47.12;100383.97;5061258;28;65684;-37
2021/05/19 07:42:30;;;;;;;8.60;7.28;;;;;;;32.98;47.09;100394.03;5072314;27;69487;-38
2021/05/19 07:45:12;;;;;;;7.22;6.68;;;;;;;32.99;47.32;100392.94;5066543;28;67028;-38
2021/05/19 07:47:40;;;;;;;8.05;7.45;;;;;;;32.76;47.53;100362.16;5064565;27;69903;-37
2021/05/19 07:50:19;;;;;;;7.65;7.05;;;;;;;33.09;47.38;100417.63;5072373;27;66784;-39
2021/05/19 07:52:49;;;;;;;7.55;6.97;;;;;;;33.12;47.49;100417.13;5070366;28;70567;-37
2021/05/19 07:58:10;;;;;;;7.78;7.18;;;;;;;33.10;47.92;100400.25;5072660;27;70550;-37
2021/05/19 08:01:03;;;;;;;8.40;6.38;;;;;;;32.89;47.59;100353.69;5068652;28;65831;-37
2021/05/19 08:03:41;;;;;;;9.63;7.45;;;;;;;33.21;48.09;100396.63;5062066;27;70227;-38
2021/05/19 08:06:13;;;;;;;7.15;6.65;;;;;;;33.26;47.74;100404.84;5068817;28;65726;-38
2021/05/19 08:08:42;;;;;;;8.20;6.47;;;;;;;33.28;47.87;100408.16;5074761;27;70149;-37
2021/05/19 08:11:12;;;;;;;8.25;7.65;;;;;;;33.22;47.99;100398.28;5075607;27;65826;-37
2021/05/19 08:13:41;;;;;;;7.13;6.45;;;;;;;33.32;47.92;100424.78;5073881;27;68571;-39
2021/05/19 08:16:11;;;;;;;7.45;6.90;;;;;;;33.36;48.11;100439.53;5071066;28;66085;-38
2021/05/19 08:18:43;;;;;;;7.30;6.85;;;;;;;33.28;47.93;100462.50;5068044;27;69761;-38
2021/05/19 08:21:16;;;;;;;8.07;7.18;;;;;;;33.34;48.26;100482.44;5065189;27;66641;-37
2021/05/19 08:23:49;;;;;;;7.90;7.20;;;;;;;33.34;48.58;100488.72;5068759;27;69248;-37
2021/05/19 08:26:40;;;;;;;8.30;6.85;;;;;;;32.91;49.18;100408.59;5063324;27;66218;-37
2021/05/19 08:29:26;;;;;;;12.70;7.90;;;;;;;33.32;48.91;100458.25;5071530;28;69907;-39
2021/05/19 08:31:58;;;;;;;;;;;;;;;33.06;49.85;100475.19;5070057;27;67080;-37
2021/05/19 08:34:52;;;;;;;8.05;7.45;;;;;;;33.23;49.65;100476.00;5068208;27;69752;-37
2021/05/19 08:37:27;;;;;;;10.15;7.90;;;;;;;33.32;50.40;100490.88;5064504;28;66316;-37
2021/05/19 08:39:58;;;;;;;7.47;7.00;;;;;;;33.23;50.32;100481.44;5068292;27;71530;-38
2021/05/19 08:42:37;;;;;;;8.05;7.20;;;;;;;33.33;50.63;100486.25;5068107;28;67665;-37
2021/05/19 08:45:09;;;;;;;7.05;6.65;;;;;;;33.31;50.43;100489.19;5071075;28;70130;-38
2021/05/19 08:47:44;;;;;;;7.57;7.00;;;;;;;33.24;50.46;100472.25;5059923;27;65948;-37
2021/05/19 08:50:16;;;;;;;9.27;7.63;;;;;;;33.23;50.54;100476.00;5064763;27;69303;-38
2021/05/19 08:52:49;;;;;;;8.05;7.43;;;;;;;33.23;50.54;100476.00;5060597;28;65879;-38
2021/05/19 08:55:20;;;;;;;7.20;6.70;;;;;;;33.28;50.43;100467.94;5074884;27;69092;-37
2021/05/19 08:57:52;;;;;;;7.18;6.72;;;;;;;33.27;50.68;100465.50;5070459;28;66179;-37
2021/05/19 09:00:23;;;;;;;6.90;6.40;;;;;;;33.26;50.79;100469.25;5072750;27;70297;-38
2021/05/19 09:03:11;;;;;;;7.18;6.57;;;;;;;32.84;50.54;100399.78;5074592;27;66000;-38
2021/05/19 09:05:45;;;;;;;6.28;5.95;;;;;;;33.25;50.57;100478.50;5067799;27;69730;-38
2021/05/19 09:08:19;;;;;;;7.05;6.50;;;;;;;33.25;50.93;100503.78;5055775;28;65192;-38
2021/05/19 09:11:04;;;;;;;6.20;5.80;;;;;;;33.16;50.57;100502.53;5055989;28;69712;-37
2021/05/19 09:13:44;;;;;;;6.28;5.88;;;;;;;33.24;50.65;100509.44;5074985;27;64745;-37
2021/05/19 09:16:29;;;;;;;6.60;6.10;;;;;;;33.13;51.29;100505.75;5065767;28;69343;-37
2021/05/19 09:19:01;;;;;;;6.43;5.95;;;;;;;33.20;50.89;100503.69;5062114;27;66455;-37
2021/05/19 09:21:33;;;;;;;6.50;5.18;;;;;;;33.21;50.64;100516.22;5055736;28;69843;-37
2021/05/19 09:24:33;;;;;;;6.13;5.72;;;;;;;33.09;50.89;100510.00;5054608;28;66250;-38
2021/05/19 09:27:05;;;;;;;5.90;5.40;;;;;;;33.03;51.02;100508.28;5054152;28;70126;-37
2021/05/19 09:29:58;;;;;;;6.22;5.82;;;;;;;33.15;50.81;100534.34;5056800;28;66083;-37
2021/05/19 09:32:29;;;;;;;6.05;5.63;;;;;;;33.06;50.61;100521.38;5073865;27;70353;-37
2021/05/19 09:35:04;;;;;;;6.50;5.50;;;;;;;33.14;50.73;100523.69;5076183;27;66449;-37
2021/05/19 09:37:35;;;;;;;;;;;;;;;32.83;51.79;100514.13;5073840;27;70255;-37
2021/05/19 09:40:11;;;;;;;5.43;5.07;;;;;;;33.07;51.15;100502.13;5073467;27;66170;-37
2021/05/19 09:42:57;;;;;;;5.95;5.32;;;;;;;33.11;51.07;100488.88;5072766;27;70279;-37
2021/05/19 09:45:49;;;;;;;5.22;4.93;;;;;;;33.08;51.08;100483.91;5059589;28;66100;-37
2021/05/19 09:48:22;;;;;;;5.30;4.80;;;;;;;33.04;51.02;100477.31;5061659;27;69450;-37
2021/05/19 09:50:52;;;;;;;4.88;4.40;;;;;;;32.92;51.15;100475.44;5066047;27;65713;-37
2021/05/19 09:53:32;;;;;;;5.57;5.00;;;;;;;32.75;50.79;100443.91;5069987;28;69208;-38
2021/05/19 09:56:06;;;;;;;6.00;5.05;;;;;;;33.06;51.39;100503.16;5052636;28;65999;-38
2021/05/19 09:58:43;;;;;;;5.10;4.80;;;;;;;32.72;51.21;100447.91;5062862;28;69374;-38
2021/05/19 10:01:15;;;;;;;5.55;5.25;;;;;;;33.05;51.50;100508.88;5062600;28;66167;-38
2021/05/19 10:03:45;;;;;;;5.65;5.25;;;;;;;32.96;51.32;100507.56;5064364;27;69699;-39
2021/05/19 10:06:25;;;;;;;5.00;4.70;;;;;;;33.01;51.54;100510.41;5061704;28;65908;-39
2021/05/19 10:09:18;;;;;;;5.05;4.75;;;;;;;33.03;51.59;100519.16;5047628;28;69091;-39
2021/05/19 10:11:48;;;;;;;5.55;5.05;;;;;;;33.01;51.62;100518.56;5054822;27;66603;-39
2021/05/19 10:14:24;;;;;;;6.93;5.82;;;;;;;32.98;54.32;100527.16;5059987;27;70329;-38
2021/05/19 10:17:05;;;;;;;6.72;5.63;;;;;;;32.88;55.18;100528.63;5067060;27;65737;-37
2021/05/19 10:20:01;;;;;;;6.57;5.78;;;;;;;32.40;56.28;100467.38;5068111;28;69969;-38
2021/05/19 10:22:35;;;;;;;9.15;6.25;;;;;;;32.72;56.40;100524.78;5056192;27;66451;-39
2021/05/19 10:25:19;;;;;;;10.52;6.47;;;;;;;32.68;56.97;100528.22;5065151;27;69895;-37
2021/05/19 10:27:59;;;;;;;12.50;6.47;;;;;;;32.66;57.06;100546.66;5063157;28;65990;-35
2021/05/19 10:30:54;;;;;;;12.13;6.78;;;;;;;32.50;57.85;100548.22;5079885;27;68997;-37
2021/05/19 10:33:40;;;;;;;11.23;6.22;;;;;;;32.58;57.79;100560.63;5064032;27;65943;-37
2021/05/19 10:36:25;;;;;;;8.02;7.32;;;;;;;32.48;58.16;100567.50;5055294;27;70553;-36
2021/05/19 10:39:11;;;;;;;7.65;6.80;;;;;;;32.49;58.08;100569.13;5066143;27;65314;-38
2021/05/19 10:41:47;;;;;;;10.02;7.05;;;;;;;32.47;57.79;100571.25;5057392;28;70752;-37
2021/05/19 10:44:24;;;;;;;8.73;6.82;;;;;;;31.94;58.22;100479.97;5061297;28;65461;-37
2021/05/19 10:47:09;;;;;;;8.00;6.20;;;;;;;32.45;58.75;100564.38;5057432;28;70290;-37
2021/05/19 10:49:53;;;;;;;10.70;8.00;;;;;;;32.46;59.38;100585.09;5066277;27;65956;-38
2021/05/19 10:52:45;;;;;;;11.80;7.63;;;;;;;32.47;58.81;100582.09;5067350;27;69489;-38
2021/05/19 11:01:13;;;;;;;8.40;7.47;;;;;;;32.44;59.97;100608.88;5071085;27;66154;-37
2021/05/19 11:04:20;;;;;;;7.53;6.88;;;;;;;32.30;60.21;100592.03;5067232;27;70599;-38
2021/05/19 11:07:11;;;;;;;11.63;7.15;;;;;;;32.35;60.41;100608.44;5064730;27;66136;-37
2021/05/19 11:09:41;;;;;;;9.77;7.13;;;;;;;32.41;59.98;100610.19;5059334;28;70863;-36
2021/05/19 11:12:25;;;;;;;7.60;6.80;;;;;;;32.42;60.48;100616.44;5072357;27;66396;-37
2021/05/19 11:15:03;;;;;;;9.32;7.10;;;;;;;32.41;60.47;100615.63;5068121;27;70548;-37
2021/05/19 11:17:57;;;;;;;9.13;7.25;;;;;;;32.40;60.35;100613.13;5066051;27;66363;-37
2021/05/19 11:20:27;;;;;;;13.10;7.65;;;;;;;32.39;60.61;100623.16;5064655;28;70150;-38
2021/05/19 11:23:09;;;;;;;11.52;7.68;;;;;;;32.33;61.24;100626.81;5062453;27;66281;-37
2021/05/19 11:25:41;;;;;;;19.60;8.02;;;;;;;32.31;61.04;100626.22;5065539;28;69674;-38
2021/05/19 11:28:12;;;;;;;14.38;8.15;;;;;;;32.36;61.27;100639.94;5071066;28;66161;-37
2021/05/19 11:30:43;;;;;;;9.45;7.45;;;;;;;32.36;61.04;100645.34;5060649;27;70355;-37
2021/05/19 11:33:17;;;;;;;18.25;8.65;;;;;;;32.34;61.34;100663.75;5067192;28;66504;-38
2021/05/19 11:35:48;;;;;;;18.85;8.95;;;;;;;32.36;61.82;100677.94;5071494;27;70329;-38
2021/05/19 11:38:21;;;;;;;11.23;8.38;;;;;;;32.37;61.28;100667.88;5062318;27;66238;-37
2021/05/19 11:40:53;;;;;;;11.63;7.45;;;;;;;32.28;61.85;100667.41;5060641;27;70531;-37
2021/05/19 11:43:37;;;;;;;13.80;8.93;;;;;;;32.34;62.39;100690.91;5064188;28;66246;-37
2021/05/19 11:46:07;;;;;;;13.30;10.60;;;;;;;32.37;62.10;100690.44;5065903;27;69323;-38
2021/05/19 11:48:39;;;;;;;18.33;13.82;;;;;;;32.39;62.96;100704.59;5061587;27;66249;-37
2021/05/19 11:51:23;;;;;;;17.27;12.65;;;;;;;32.05;62.39;100649.22;5061977;27;70470;-38
2021/05/19 11:54:03;;;;;;;15.02;10.93;;;;;;;32.10;62.87;100664.81;5069209;28;65471;-37
2021/05/19 11:56:46;;;;;;;14.40;10.57;;;;;;;32.35;63.08;100708.03;5069212;28;70561;-37
2021/05/19 11:59:26;;;;;;;16.08;10.70;;;;;;;32.05;62.50;100655.47;5067086;27;65935;-37
2021/05/19 12:02:04;;;;;;;19.45;9.57;;;;;;;31.80;62.85;100628.50;5063032;28;70843;-37